Water Valley, Texas
Current Conditions -  °F | °C
As of 11:51 AM on Saturday 25 Oct 2014 (Local Time) from KSJT Reporting Station
Clear Clear  
Wind Chill: 81°   Ceiling: Unl
Heat Index: 81°   Visibility: 10mi
Dew Point: 57°   Wind: 10mph
Humidity: 44%   Direction: 200°SSW
Pressure: 30.19"   Gusts: NA
Location:  31.67°N, 100.72°W
Report Text: KSJT 251651Z 20009KT 10SM CLR 27/14 A3019 RMK AO2 SLP202 T02720139
Loading
Personal Weather Stations






























Interactive Weather Map
Tropical Storm Tracking
New forecast layout! Learn more

10-Day Weather Forecast

Advertisements
Track Severe Weather on mobile